sensor_id;sensor_type;location;lat;lon;timestamp;pressure;altitude;pressure_sealevel;temperature;humidity
52591;BME280;38483;42.620;25.394;2024-01-30T00:00:34;99001.25;;;1.32;63.98
52591;BME280;38483;42.620;25.394;2024-01-30T00:03:04;99002.88;;;1.28;63.86
52591;BME280;38483;42.620;25.394;2024-01-30T00:05:31;99008.03;;;1.30;64.05
52591;BME280;38483;42.620;25.394;2024-01-30T00:07:58;98996.44;;;1.44;64.38
52591;BME280;38483;42.620;25.394;2024-01-30T00:10:25;99007.53;;;1.46;62.62
52591;BME280;38483;42.620;25.394;2024-01-30T00:12:53;99007.22;;;1.32;62.81
52591;BME280;38483;42.620;25.394;2024-01-30T00:15:20;99019.13;;;1.32;62.77
52591;BME280;38483;42.620;25.394;2024-01-30T00:17:47;99022.25;;;1.20;62.88
52591;BME280;38483;42.620;25.394;2024-01-30T00:20:14;99019.72;;;1.22;63.29
52591;BME280;38483;42.620;25.394;2024-01-30T00:22:41;99031.41;;;1.11;62.58
52591;BME280;38483;42.620;25.394;2024-01-30T00:25:08;99026.53;;;1.21;62.95
52591;BME280;38483;42.620;25.394;2024-01-30T00:27:35;99035.28;;;1.32;61.99
52591;BME280;38483;42.620;25.394;2024-01-30T00:30:03;99030.50;;;1.46;61.43
52591;BME280;38483;42.620;25.394;2024-01-30T00:32:31;99029.22;;;1.27;61.72
52591;BME280;38483;42.620;25.394;2024-01-30T00:34:58;99024.13;;;1.27;62.23
52591;BME280;38483;42.620;25.394;2024-01-30T00:37:26;99028.66;;;1.40;62.99
52591;BME280;38483;42.620;25.394;2024-01-30T00:39:53;99017.50;;;1.35;61.55
52591;BME280;38483;42.620;25.394;2024-01-30T00:42:20;99036.38;;;1.43;62.28
52591;BME280;38483;42.620;25.394;2024-01-30T00:44:48;99051.34;;;1.28;62.81
52591;BME280;38483;42.620;25.394;2024-01-30T00:47:15;99049.00;;;1.36;62.11
52591;BME280;38483;42.620;25.394;2024-01-30T00:49:42;99047.41;;;1.42;62.88
52591;BME280;38483;42.620;25.394;2024-01-30T00:52:09;99046.06;;;1.58;62.46
52591;BME280;38483;42.620;25.394;2024-01-30T00:54:36;99053.97;;;1.69;61.95
52591;BME280;38483;42.620;25.394;2024-01-30T00:57:04;99059.31;;;1.81;62.29
52591;BME280;38483;42.620;25.394;2024-01-30T00:59:31;99053.97;;;1.30;62.37
52591;BME280;38483;42.620;25.394;2024-01-30T01:01:58;99054.75;;;1.27;63.92
52591;BME280;38483;42.620;25.394;2024-01-30T01:04:25;99045.38;;;1.28;64.07
52591;BME280;38483;42.620;25.394;2024-01-30T01:06:54;99040.47;;;1.35;63.36
52591;BME280;38483;42.620;25.394;2024-01-30T01:09:21;99040.53;;;1.38;62.35
52591;BME280;38483;42.620;25.394;2024-01-30T01:11:48;99032.59;;;1.26;62.16
52591;BME280;38483;42.620;25.394;2024-01-30T01:14:15;99029.09;;;1.21;62.75
52591;BME280;38483;42.620;25.394;2024-01-30T01:16:42;99036.19;;;1.34;63.35
52591;BME280;38483;42.620;25.394;2024-01-30T01:19:10;99025.19;;;1.37;63.19
52591;BME280;38483;42.620;25.394;2024-01-30T01:21:37;99036.63;;;1.54;62.51
52591;BME280;38483;42.620;25.394;2024-01-30T01:24:05;99034.00;;;1.51;62.82
52591;BME280;38483;42.620;25.394;2024-01-30T01:26:32;99009.75;;;1.32;63.31
52591;BME280;38483;42.620;25.394;2024-01-30T01:28:59;99029.88;;;1.57;63.16
52591;BME280;38483;42.620;25.394;2024-01-30T01:31:26;99034.13;;;1.57;63.79
52591;BME280;38483;42.620;25.394;2024-01-30T01:33:56;99034.22;;;1.61;63.20
52591;BME280;38483;42.620;25.394;2024-01-30T01:36:24;99003.72;;;1.27;63.91
52591;BME280;38483;42.620;25.394;2024-01-30T01:38:51;99030.69;;;1.55;64.49
52591;BME280;38483;42.620;25.394;2024-01-30T01:41:18;99020.81;;;1.72;64.85
52591;BME280;38483;42.620;25.394;2024-01-30T01:43:45;99018.25;;;1.72;65.20
52591;BME280;38483;42.620;25.394;2024-01-30T01:46:12;99020.81;;;1.72;64.08
52591;BME280;38483;42.620;25.394;2024-01-30T01:48:39;99026.09;;;1.79;64.55
52591;BME280;38483;42.620;25.394;2024-01-30T01:51:07;99013.25;;;1.76;63.58
52591;BME280;38483;42.620;25.394;2024-01-30T01:53:34;99005.34;;;1.62;64.29
52591;BME280;38483;42.620;25.394;2024-01-30T01:56:02;99003.63;;;1.63;64.90
52591;BME280;38483;42.620;25.394;2024-01-30T01:58:30;98994.88;;;1.50;65.37
52591;BME280;38483;42.620;25.394;2024-01-30T02:00:58;98992.34;;;1.52;65.23
52591;BME280;38483;42.620;25.394;2024-01-30T02:03:26;99011.38;;;1.67;64.60
52591;BME280;38483;42.620;25.394;2024-01-30T02:05:53;98999.22;;;1.54;64.99
52591;BME280;38483;42.620;25.394;2024-01-30T02:08:21;98989.75;;;1.50;65.09
52591;BME280;38483;42.620;25.394;2024-01-30T02:10:48;99000.22;;;1.62;65.32
52591;BME280;38483;42.620;25.394;2024-01-30T02:13:15;99018.47;;;1.81;64.31
52591;BME280;38483;42.620;25.394;2024-01-30T02:15:42;99020.78;;;1.69;65.56
52591;BME280;38483;42.620;25.394;2024-01-30T02:18:10;99009.84;;;1.76;65.31
52591;BME280;38483;42.620;25.394;2024-01-30T02:20:58;99004.91;;;1.83;64.35
52591;BME280;38483;42.620;25.394;2024-01-30T02:23:28;99012.50;;;1.80;64.88
52591;BME280;38483;42.620;25.394;2024-01-30T02:25:57;99020.41;;;1.92;65.03
52591;BME280;38483;42.620;25.394;2024-01-30T02:28:24;99015.03;;;1.79;65.37
52591;BME280;38483;42.620;25.394;2024-01-30T02:30:51;99012.38;;;1.76;65.91
52591;BME280;38483;42.620;25.394;2024-01-30T02:33:18;99009.78;;;1.73;64.23
52591;BME280;38483;42.620;25.394;2024-01-30T02:35:46;99006.94;;;1.59;62.57
52591;BME280;38483;42.620;25.394;2024-01-30T02:38:13;98993.22;;;1.52;62.95
52591;BME280;38483;42.620;25.394;2024-01-30T02:40:40;99004.47;;;1.62;63.62
52591;BME280;38483;42.620;25.394;2024-01-30T02:43:07;99006.22;;;1.64;63.15
52591;BME280;38483;42.620;25.394;2024-01-30T02:45:35;99002.06;;;1.71;64.61
52591;BME280;38483;42.620;25.394;2024-01-30T02:48:02;99001.41;;;1.80;64.81
52591;BME280;38483;42.620;25.394;2024-01-30T02:50:29;99009.16;;;1.84;64.46
52591;BME280;38483;42.620;25.394;2024-01-30T02:52:56;99000.72;;;1.87;64.74
52591;BME280;38483;42.620;25.394;2024-01-30T02:55:23;99004.28;;;1.95;65.00
52591;BME280;38483;42.620;25.394;2024-01-30T02:57:50;98996.50;;;1.89;64.87
52591;BME280;38483;42.620;25.394;2024-01-30T03:00:18;98993.22;;;1.96;63.98
52591;BME280;38483;42.620;25.394;2024-01-30T03:02:46;98985.38;;;1.87;63.34
52591;BME280;38483;42.620;25.394;2024-01-30T03:05:13;98974.19;;;1.82;63.52
52591;BME280;38483;42.620;25.394;2024-01-30T03:07:40;98900.13;;;1.37;62.96
52591;BME280;38483;42.620;25.394;2024-01-30T03:10:07;98986.16;;;1.83;63.86
52591;BME280;38483;42.620;25.394;2024-01-30T03:12:35;98977.59;;;1.81;63.56
52591;BME280;38483;42.620;25.394;2024-01-30T03:15:02;98974.19;;;1.80;63.39
52591;BME280;38483;42.620;25.394;2024-01-30T03:17:30;98976.53;;;1.71;63.19
52591;BME280;38483;42.620;25.394;2024-01-30T03:19:58;98972.25;;;1.69;63.79
52591;BME280;38483;42.620;25.394;2024-01-30T03:22:25;98962.06;;;1.70;64.14
52591;BME280;38483;42.620;25.394;2024-01-30T03:24:52;98977.47;;;1.73;64.46
52591;BME280;38483;42.620;25.394;2024-01-30T03:27:20;98970.59;;;1.71;64.65
52591;BME280;38483;42.620;25.394;2024-01-30T03:29:47;98975.69;;;1.71;64.61
52591;BME280;38483;42.620;25.394;2024-01-30T03:32:14;98968.81;;;1.67;64.91
52591;BME280;38483;42.620;25.394;2024-01-30T03:34:41;98971.38;;;1.68;64.31
52591;BME280;38483;42.620;25.394;2024-01-30T03:37:08;98972.19;;;1.67;64.97
52591;BME280;38483;42.620;25.394;2024-01-30T03:39:35;98963.78;;;1.71;64.48
52591;BME280;38483;42.620;25.394;2024-01-30T03:42:03;98957.00;;;1.30;62.59
52591;BME280;38483;42.620;25.394;2024-01-30T03:44:30;98971.94;;;1.53;62.87
52591;BME280;38483;42.620;25.394;2024-01-30T03:46:57;98962.50;;;1.49;64.31
52591;BME280;38483;42.620;25.394;2024-01-30T03:49:24;98967.72;;;1.55;64.89
52591;BME280;38483;42.620;25.394;2024-01-30T03:51:51;98965.25;;;1.58;64.36
52591;BME280;38483;42.620;25.394;2024-01-30T03:54:18;98970.38;;;1.60;65.77
52591;BME280;38483;42.620;25.394;2024-01-30T03:56:46;98971.66;;;1.82;64.65
52591;BME280;38483;42.620;25.394;2024-01-30T03:59:13;98974.72;;;1.65;64.89
52591;BME280;38483;42.620;25.394;2024-01-30T04:01:40;98967.06;;;1.65;64.96
52591;BME280;38483;42.620;25.394;2024-01-30T04:04:07;98967.72;;;1.55;65.02
52591;BME280;38483;42.620;25.394;2024-01-30T04:06:35;98973.72;;;1.57;64.75
52591;BME280;38483;42.620;25.394;2024-01-30T04:09:02;98961.69;;;1.52;65.46
52591;BME280;38483;42.620;25.394;2024-01-30T04:11:30;98970.06;;;1.46;66.34
52591;BME280;38483;42.620;25.394;2024-01-30T04:13:57;98966.78;;;1.50;66.38
52591;BME280;38483;42.620;25.394;2024-01-30T04:16:24;98970.91;;;1.44;65.60
52591;BME280;38483;42.620;25.394;2024-01-30T04:18:52;98965.03;;;1.48;67.27
52591;BME280;38483;42.620;25.394;2024-01-30T04:21:21;98953.06;;;1.45;67.44
52591;BME280;38483;42.620;25.394;2024-01-30T04:23:48;98953.06;;;1.47;69.16
52591;BME280;38483;42.620;25.394;2024-01-30T04:26:15;98989.03;;;1.57;67.81
52591;BME280;38483;42.620;25.394;2024-01-30T04:28:44;98983.94;;;1.57;67.82
52591;BME280;38483;42.620;25.394;2024-01-30T04:31:31;98978.09;;;1.63;68.72
52591;BME280;38483;42.620;25.394;2024-01-30T04:34:52;98978.84;;;1.59;68.77
52591;BME280;38483;42.620;25.394;2024-01-30T04:38:13;98984.94;;;1.64;67.75
52591;BME280;38483;42.620;25.394;2024-01-30T04:41:33;98971.03;;;1.50;68.63
52591;BME280;38483;42.620;25.394;2024-01-30T04:44:54;98989.53;;;1.40;69.42
52591;BME280;38483;42.620;25.394;2024-01-30T04:48:15;98983.78;;;1.11;70.34
52591;BME280;38483;42.620;25.394;2024-01-30T04:51:35;98991.00;;;1.30;70.38
52591;BME280;38483;42.620;25.394;2024-01-30T04:54:57;98981.56;;;1.26;69.95
52591;BME280;38483;42.620;25.394;2024-01-30T04:58:17;98992.66;;;1.28;70.30
52591;BME280;38483;42.620;25.394;2024-01-30T05:01:38;98995.53;;;1.42;69.55
52591;BME280;38483;42.620;25.394;2024-01-30T05:04:59;99002.38;;;1.44;70.30
52591;BME280;38483;42.620;25.394;2024-01-30T05:08:20;98997.22;;;1.41;71.31
52591;BME280;38483;42.620;25.394;2024-01-30T05:11:40;98982.69;;;1.39;69.79
52591;BME280;38483;42.620;25.394;2024-01-30T05:15:01;98991.53;;;1.54;70.94
52591;BME280;38483;42.620;25.394;2024-01-30T05:18:22;98999.47;;;1.67;69.10
52591;BME280;38483;42.620;25.394;2024-01-30T05:21:42;99000.38;;;1.70;69.97
52591;BME280;38483;42.620;25.394;2024-01-30T05:25:04;99004.34;;;1.57;71.24
52591;BME280;38483;42.620;25.394;2024-01-30T05:28:24;98997.44;;;1.52;71.33
52591;BME280;38483;42.620;25.394;2024-01-30T05:31:45;99009.13;;;1.42;70.95
52591;BME280;38483;42.620;25.394;2024-01-30T05:35:06;99002.00;;;1.28;72.99
52591;BME280;38483;42.620;25.394;2024-01-30T05:38:27;99013.78;;;1.21;73.22
52591;BME280;38483;42.620;25.394;2024-01-30T05:41:48;99017.50;;;1.35;71.86
52591;BME280;38483;42.620;25.394;2024-01-30T05:45:10;99010.09;;;1.09;72.37
52591;BME280;38483;42.620;25.394;2024-01-30T05:48:31;99009.66;;;1.28;72.48
52591;BME280;38483;42.620;25.394;2024-01-30T05:51:51;99013.97;;;1.30;73.27
52591;BME280;38483;42.620;25.394;2024-01-30T05:55:12;99023.38;;;1.33;71.92
52591;BME280;38483;42.620;25.394;2024-01-30T05:58:33;99018.38;;;1.36;72.73
52591;BME280;38483;42.620;25.394;2024-01-30T06:01:54;99024.31;;;1.36;72.02
52591;BME280;38483;42.620;25.394;2024-01-30T06:05:15;99052.34;;;1.35;71.82
52591;BME280;38483;42.620;25.394;2024-01-30T06:08:35;99042.13;;;1.33;71.04
52591;BME280;38483;42.620;25.394;2024-01-30T06:12:01;98983.56;;;1.02;71.27
52591;BME280;38483;42.620;25.394;2024-01-30T06:15:22;99038.06;;;1.41;71.96
52591;BME280;38483;42.620;25.394;2024-01-30T06:18:43;99051.34;;;1.28;69.99
52591;BME280;38483;42.620;25.394;2024-01-30T06:22:04;99045.06;;;1.13;71.15
52591;BME280;38483;42.620;25.394;2024-01-30T06:25:25;99047.72;;;1.17;72.47
52591;BME280;38483;42.620;25.394;2024-01-30T06:28:45;99065.63;;;1.20;71.58
52591;BME280;38483;42.620;25.394;2024-01-30T06:32:06;99040.47;;;1.35;70.43
52591;BME280;38483;42.620;25.394;2024-01-30T06:35:29;99045.72;;;1.43;70.85
52591;BME280;38483;42.620;25.394;2024-01-30T06:38:49;99042.38;;;1.44;70.93
52591;BME280;38483;42.620;25.394;2024-01-30T06:42:10;99060.38;;;1.51;70.40
52591;BME280;38483;42.620;25.394;2024-01-30T06:45:11;99053.06;;;1.67;70.14
52591;BME280;38483;42.620;25.394;2024-01-30T06:47:38;99058.00;;;1.59;69.29
52591;BME280;38483;42.620;25.394;2024-01-30T06:50:05;99054.31;;;1.46;69.57
52591;BME280;38483;42.620;25.394;2024-01-30T06:52:33;99050.31;;;1.57;68.96
52591;BME280;38483;42.620;25.394;2024-01-30T06:55:00;99056.41;;;1.62;68.30
52591;BME280;38483;42.620;25.394;2024-01-30T06:57:30;99060.31;;;1.48;68.74
52591;BME280;38483;42.620;25.394;2024-01-30T06:59:57;99043.41;;;1.53;68.41
52591;BME280;38483;42.620;25.394;2024-01-30T07:02:24;99063.31;;;1.68;68.39
52591;BME280;38483;42.620;25.394;2024-01-30T07:04:52;99040.34;;;1.70;68.95
52591;BME280;38483;42.620;25.394;2024-01-30T07:07:19;99073.88;;;1.85;69.13
52591;BME280;38483;42.620;25.394;2024-01-30T07:09:46;99063.56;;;1.80;68.87
52591;BME280;38483;42.620;25.394;2024-01-30T07:12:16;99056.78;;;1.81;68.16
52591;BME280;38483;42.620;25.394;2024-01-30T07:14:43;99061.13;;;1.85;69.03
52591;BME280;38483;42.620;25.394;2024-01-30T07:17:10;99065.47;;;1.89;68.06
52591;BME280;38483;42.620;25.394;2024-01-30T07:19:37;99067.09;;;1.85;67.97
52591;BME280;38483;42.620;25.394;2024-01-30T07:22:05;99059.19;;;1.73;69.06
52591;BME280;38483;42.620;25.394;2024-01-30T07:24:32;99058.25;;;1.71;67.83
52591;BME280;38483;42.620;25.394;2024-01-30T07:26:59;99061.88;;;1.81;67.68
52591;BME280;38483;42.620;25.394;2024-01-30T07:29:26;99054.47;;;1.52;67.69
52591;BME280;38483;42.620;25.394;2024-01-30T07:31:53;99069.03;;;1.56;68.28
52591;BME280;38483;42.620;25.394;2024-01-30T07:34:20;99060.75;;;1.67;68.44
52591;BME280;38483;42.620;25.394;2024-01-30T07:36:48;99037.53;;;1.57;67.37
52591;BME280;38483;42.620;25.394;2024-01-30T07:39:15;99063.47;;;1.76;66.47
52591;BME280;38483;42.620;25.394;2024-01-30T07:41:42;99063.59;;;1.82;67.50
52591;BME280;38483;42.620;25.394;2024-01-30T07:44:09;99059.44;;;1.85;67.48
52591;BME280;38483;42.620;25.394;2024-01-30T07:46:36;99054.66;;;2.02;67.04
52591;BME280;38483;42.620;25.394;2024-01-30T07:49:04;99062.28;;;2.00;67.69
52591;BME280;38483;42.620;25.394;2024-01-30T07:51:31;99058.53;;;1.83;67.42
52591;BME280;38483;42.620;25.394;2024-01-30T07:53:59;99039.59;;;1.74;66.34
52591;BME280;38483;42.620;25.394;2024-01-30T07:56:26;99053.34;;;1.80;66.77
52591;BME280;38483;42.620;25.394;2024-01-30T07:58:54;99061.16;;;1.88;66.71
52591;BME280;38483;42.620;25.394;2024-01-30T08:01:21;99052.81;;;1.95;67.27
52591;BME280;38483;42.620;25.394;2024-01-30T08:03:48;99051.16;;;1.97;66.13
52591;BME280;38483;42.620;25.394;2024-01-30T08:06:20;99036.59;;;1.94;65.54
52591;BME280;38483;42.620;25.394;2024-01-30T08:08:47;99037.16;;;1.80;66.15
52591;BME280;38483;42.620;25.394;2024-01-30T08:11:14;99058.34;;;1.74;65.43
52591;BME280;38483;42.620;25.394;2024-01-30T08:13:41;99053.13;;;1.70;65.92
52591;BME280;38483;42.620;25.394;2024-01-30T08:16:15;99045.78;;;1.85;67.46
52591;BME280;38483;42.620;25.394;2024-01-30T08:18:42;99056.06;;;1.88;66.27
52591;BME280;38483;42.620;25.394;2024-01-30T08:21:09;99056.94;;;1.90;67.31
52591;BME280;38483;42.620;25.394;2024-01-30T08:23:44;99051.16;;;1.97;67.13
52591;BME280;38483;42.620;25.394;2024-01-30T08:26:12;99049.72;;;2.11;66.38
52591;BME280;38483;42.620;25.394;2024-01-30T08:28:41;99041.38;;;2.19;65.74
52591;BME280;38483;42.620;25.394;2024-01-30T08:31:10;99032.88;;;2.20;65.44
52591;BME280;38483;42.620;25.394;2024-01-30T08:33:39;98991.97;;;1.76;65.26
52591;BME280;38483;42.620;25.394;2024-01-30T08:36:08;99056.69;;;2.18;66.46
52591;BME280;38483;42.620;25.394;2024-01-30T08:38:35;99048.16;;;2.19;65.32
52591;BME280;38483;42.620;25.394;2024-01-30T08:41:03;99048.66;;;2.00;65.66
52591;BME280;38483;42.620;25.394;2024-01-30T08:43:30;99019.72;;;2.02;64.63
52591;BME280;38483;42.620;25.394;2024-01-30T08:46:00;99024.94;;;2.07;62.82
52591;BME280;38483;42.620;25.394;2024-01-30T08:48:28;99044.03;;;2.24;62.36
52591;BME280;38483;42.620;25.394;2024-01-30T08:50:55;99051.00;;;2.32;62.56
52591;BME280;38483;42.620;25.394;2024-01-30T08:53:22;99055.91;;;2.22;62.78
52591;BME280;38483;42.620;25.394;2024-01-30T08:55:49;99060.38;;;2.32;64.58
52591;BME280;38483;42.620;25.394;2024-01-30T08:58:16;99056.91;;;2.30;64.59
52591;BME280;38483;42.620;25.394;2024-01-30T09:00:46;99069.25;;;2.52;64.41
52591;BME280;38483;42.620;25.394;2024-01-30T09:03:13;99070.00;;;2.45;64.64
52591;BME280;38483;42.620;25.394;2024-01-30T09:05:41;99074.03;;;2.34;64.38
52591;BME280;38483;42.620;25.394;2024-01-30T09:08:08;99075.59;;;2.26;64.50
52591;BME280;38483;42.620;25.394;2024-01-30T09:10:35;99058.22;;;2.10;64.84
52591;BME280;38483;42.620;25.394;2024-01-30T09:13:02;99073.72;;;2.17;64.73
52591;BME280;38483;42.620;25.394;2024-01-30T09:15:30;99080.22;;;2.02;63.36
52591;BME280;38483;42.620;25.394;2024-01-30T09:18:00;99061.34;;;1.95;64.04
52591;BME280;38483;42.620;25.394;2024-01-30T09:20:28;99040.13;;;1.99;65.52
52591;BME280;38483;42.620;25.394;2024-01-30T09:22:58;99062.50;;;2.12;64.35
52591;BME280;38483;42.620;25.394;2024-01-30T09:25:45;99072.34;;;1.93;64.74
52591;BME280;38483;42.620;25.394;2024-01-30T09:28:41;99055.88;;;1.79;65.64
52591;BME280;38483;42.620;25.394;2024-01-30T09:31:32;99075.09;;;2.02;64.69
52591;BME280;38483;42.620;25.394;2024-01-30T09:34:52;99073.63;;;2.14;63.83
52591;BME280;38483;42.620;25.394;2024-01-30T09:38:13;99075.47;;;2.20;64.16
52591;BME280;38483;42.620;25.394;2024-01-30T09:41:34;99059.06;;;2.10;64.77
52591;BME280;38483;42.620;25.394;2024-01-30T09:44:54;99066.84;;;2.15;64.76
52591;BME280;38483;42.620;25.394;2024-01-30T09:48:15;99058.88;;;2.00;64.78
52591;BME280;38483;42.620;25.394;2024-01-30T09:51:36;99049.56;;;2.03;64.56
52591;BME280;38483;42.620;25.394;2024-01-30T09:54:58;99049.72;;;2.11;66.61
52591;BME280;38483;42.620;25.394;2024-01-30T09:58:17;99054.09;;;2.16;64.64
52591;BME280;38483;42.620;25.394;2024-01-30T10:01:40;99054.34;;;1.87;65.59
52591;BME280;38483;42.620;25.394;2024-01-30T10:05:01;99052.00;;;1.97;65.10
52591;BME280;38483;42.620;25.394;2024-01-30T10:08:21;99060.00;;;2.14;64.61
52591;BME280;38483;42.620;25.394;2024-01-30T10:11:42;99069.25;;;2.07;63.08
52591;BME280;38483;42.620;25.394;2024-01-30T10:15:06;99001.91;;;1.62;63.45
52591;BME280;38483;42.620;25.394;2024-01-30T10:17:37;99056.44;;;2.06;64.12
52591;BME280;38483;42.620;25.394;2024-01-30T10:20:18;99054.47;;;1.93;64.40
52591;BME280;38483;42.620;25.394;2024-01-30T10:23:00;99045.16;;;1.95;65.06
52591;BME280;38483;42.620;25.394;2024-01-30T10:25:41;99049.13;;;1.82;65.59
52591;BME280;38483;42.620;25.394;2024-01-30T10:28:28;99046.81;;;1.94;66.13
52591;BME280;38483;42.620;25.394;2024-01-30T10:31:46;99033.25;;;1.97;65.08
52591;BME280;38483;42.620;25.394;2024-01-30T10:34:14;99042.72;;;2.01;64.70
52591;BME280;38483;42.620;25.394;2024-01-30T10:36:50;99055.28;;;1.92;64.14
52591;BME280;38483;42.620;25.394;2024-01-30T10:39:29;99043.25;;;1.86;64.93
52591;BME280;38483;42.620;25.394;2024-01-30T10:42:01;99044.38;;;1.99;64.83
52591;BME280;38483;42.620;25.394;2024-01-30T10:44:39;99039.38;;;2.05;65.23
52591;BME280;38483;42.620;25.394;2024-01-30T10:47:12;99012.13;;;2.04;63.91
52591;BME280;38483;42.620;25.394;2024-01-30T10:49:42;99024.25;;;2.14;64.11
52591;BME280;38483;42.620;25.394;2024-01-30T10:52:10;99023.28;;;2.10;64.77
52591;BME280;38483;42.620;25.394;2024-01-30T10:54:38;99019.78;;;2.04;65.71
52591;BME280;38483;42.620;25.394;2024-01-30T10:57:08;99021.28;;;1.94;65.42
52591;BME280;38483;42.620;25.394;2024-01-30T10:59:37;99009.91;;;1.79;65.76
52591;BME280;38483;42.620;25.394;2024-01-30T11:02:05;99004.94;;;1.85;65.89
52591;BME280;38483;42.620;25.394;2024-01-30T11:04:41;99010.59;;;1.70;67.11
52591;BME280;38483;42.620;25.394;2024-01-30T11:07:18;99021.47;;;1.61;66.45
52591;BME280;38483;42.620;25.394;2024-01-30T11:09:51;99018.34;;;1.75;66.40
52591;BME280;38483;42.620;25.394;2024-01-30T11:12:26;99007.34;;;1.79;66.98
52591;BME280;38483;42.620;25.394;2024-01-30T11:20:22;98999.84;;;1.88;65.49
52591;BME280;38483;42.620;25.394;2024-01-30T11:22:54;98994.81;;;1.91;65.09
52591;BME280;38483;42.620;25.394;2024-01-30T11:25:23;98993.28;;;1.57;66.02
52591;BME280;38483;42.620;25.394;2024-01-30T11:28:14;98985.06;;;1.72;65.59
52591;BME280;38483;42.620;25.394;2024-01-30T11:31:35;98990.22;;;1.73;63.82
52591;BME280;38483;42.620;25.394;2024-01-30T11:34:56;98994.81;;;1.89;64.60
52591;BME280;38483;42.620;25.394;2024-01-30T11:38:16;98981.72;;;1.74;64.92
52591;BME280;38483;42.620;25.394;2024-01-30T11:41:37;98972.63;;;1.88;63.96
52591;BME280;38483;42.620;25.394;2024-01-30T11:45:01;98970.19;;;1.94;64.53
52591;BME280;38483;42.620;25.394;2024-01-30T11:48:19;98976.59;;;1.73;64.73
52591;BME280;38483;42.620;25.394;2024-01-30T11:51:39;98968.41;;;1.90;65.25
52591;BME280;38483;42.620;25.394;2024-01-30T11:54:43;98969.22;;;1.88;65.83
52591;BME280;38483;42.620;25.394;2024-01-30T11:57:10;98959.88;;;1.90;66.17
52591;BME280;38483;42.620;25.394;2024-01-30T11:59:37;98956.31;;;1.80;66.28
52591;BME280;38483;42.620;25.394;2024-01-30T12:02:04;98956.16;;;1.73;66.59
52591;BME280;38483;42.620;25.394;2024-01-30T12:04:32;98957.06;;;1.75;66.78
52591;BME280;38483;42.620;25.394;2024-01-30T12:06:59;98960.78;;;1.92;66.50
52591;BME280;38483;42.620;25.394;2024-01-30T12:09:30;98953.78;;;1.82;65.82
52591;BME280;38483;42.620;25.394;2024-01-30T12:11:57;98949.66;;;1.88;65.27
52591;BME280;38483;42.620;25.394;2024-01-30T12:14:24;98934.84;;;1.71;66.31
52591;BME280;38483;42.620;25.394;2024-01-30T12:16:52;98938.72;;;1.95;66.28
52591;BME280;38483;42.620;25.394;2024-01-30T12:19:26;98951.81;;;2.13;65.67
52591;BME280;38483;42.620;25.394;2024-01-30T12:21:57;98949.44;;;2.22;65.97
52591;BME280;38483;42.620;25.394;2024-01-30T12:24:29;98940.50;;;2.47;65.50
52591;BME280;38483;42.620;25.394;2024-01-30T12:26:59;98950.06;;;2.60;64.76
52591;BME280;38483;42.620;25.394;2024-01-30T12:29:33;98946.59;;;2.57;62.87
52591;BME280;38483;42.620;25.394;2024-01-30T12:32:05;98940.50;;;2.48;64.22
52591;BME280;38483;42.620;25.394;2024-01-30T12:34:32;98936.00;;;2.34;63.72
52591;BME280;38483;42.620;25.394;2024-01-30T12:37:15;98930.88;;;2.34;64.12
52591;BME280;38483;42.620;25.394;2024-01-30T12:39:46;98932.50;;;2.29;63.90
52591;BME280;38483;42.620;25.394;2024-01-30T12:42:14;98952.72;;;2.17;64.64
52591;BME280;38483;42.620;25.394;2024-01-30T12:44:41;98917.75;;;2.14;64.14
52591;BME280;38483;42.620;25.394;2024-01-30T12:47:09;98926.53;;;2.28;64.04
52591;BME280;38483;42.620;25.394;2024-01-30T12:49:36;98936.09;;;2.38;64.02
52591;BME280;38483;42.620;25.394;2024-01-30T12:52:04;98921.34;;;2.22;64.32
52591;BME280;38483;42.620;25.394;2024-01-30T12:54:31;98934.59;;;2.03;63.35
52591;BME280;38483;42.620;25.394;2024-01-30T12:56:58;98934.38;;;1.91;64.75
52591;BME280;38483;42.620;25.394;2024-01-30T12:59:25;98928.66;;;2.04;64.34
52591;BME280;38483;42.620;25.394;2024-01-30T13:01:52;98925.56;;;2.22;63.73
52591;BME280;38483;42.620;25.394;2024-01-30T13:04:20;98911.91;;;2.18;64.15
52591;BME280;38483;42.620;25.394;2024-01-30T13:06:47;98937.00;;;2.42;63.75
52591;BME280;38483;42.620;25.394;2024-01-30T13:09:14;98926.88;;;2.49;63.47
52591;BME280;38483;42.620;25.394;2024-01-30T13:11:41;98891.88;;;2.45;62.88
52591;BME280;38483;42.620;25.394;2024-01-30T13:14:08;98931.19;;;2.52;61.65
52591;BME280;38483;42.620;25.394;2024-01-30T13:16:36;98932.56;;;2.33;62.29
52591;BME280;38483;42.620;25.394;2024-01-30T13:19:03;98905.38;;;2.37;62.07
52591;BME280;38483;42.620;25.394;2024-01-30T13:21:30;98915.91;;;2.57;62.71
52591;BME280;38483;42.620;25.394;2024-01-30T13:23:57;98930.72;;;2.77;61.41
52591;BME280;38483;42.620;25.394;2024-01-30T13:26:24;98903.22;;;2.61;63.35
52591;BME280;38483;42.620;25.394;2024-01-30T13:28:52;98917.84;;;2.71;61.59
52591;BME280;38483;42.620;25.394;2024-01-30T13:31:19;98915.31;;;2.74;61.33
52591;BME280;38483;42.620;25.394;2024-01-30T13:33:46;98904.09;;;2.62;61.64
52591;BME280;38483;42.620;25.394;2024-01-30T13:36:13;98910.13;;;2.68;62.16
52591;BME280;38483;42.620;25.394;2024-01-30T13:38:41;98919.72;;;2.81;61.30
52591;BME280;38483;42.620;25.394;2024-01-30T13:41:08;98923.66;;;2.60;61.18
52591;BME280;38483;42.620;25.394;2024-01-30T13:43:35;98906.69;;;2.66;61.36
52591;BME280;38483;42.620;25.394;2024-01-30T13:46:02;98897.16;;;2.56;62.34
52591;BME280;38483;42.620;25.394;2024-01-30T13:48:31;98915.13;;;2.61;62.45
52591;BME280;38483;42.620;25.394;2024-01-30T13:50:58;98909.91;;;2.53;61.62
52591;BME280;38483;42.620;25.394;2024-01-30T13:53:26;98889.03;;;2.27;62.64
52591;BME280;38483;42.620;25.394;2024-01-30T13:55:53;98899.22;;;2.24;61.91
52591;BME280;38483;42.620;25.394;2024-01-30T13:58:20;98902.59;;;2.25;62.81
52591;BME280;38483;42.620;25.394;2024-01-30T14:00:47;98900.84;;;2.21;63.10
52591;BME280;38483;42.620;25.394;2024-01-30T14:03:14;98887.25;;;2.23;62.47
52591;BME280;38483;42.620;25.394;2024-01-30T14:05:42;98894.84;;;2.19;62.20